Bookmark and Share
Track history (hours):
 

Pacific Sapphire

Last reported at 2014-Mar-06 14:29 UTC. Time now 2014-Apr-17 21:54 UTC.
Position S 35°28' E 021°36'.
Warning: this ship's position is 42 days out of date.

Length 180 m; draft 8.5 m.

Type: Tanker. MMSI: 636015161.

NotesDate/timePositionNaut miles runAvg speedWind from/ knotsBaromVisibWave heightAir tempDewpointWater temp
2014-Mar-06 14:29S 35°28' E 021°36'2813.5
2014-Mar-06 12:23S 35°33' E 021°02'171 4.0
2014-Mar-04 17:33S 33°60' E 018°08'10 8.2
2014-Mar-04 16:23S 33°54' E 018°17'8 9.0
2014-Mar-04 15:33S 33°52' E 018°26'3 3.3
2014-Mar-04 14:32S 33°55' E 018°27'0 0.0
2014-Mar-04 13:32S 33°55' E 018°27'0 0.0
2014-Mar-04 12:32S 33°55' E 018°27'0 0.0
2014-Mar-04 11:32S 33°55' E 018°27'0 0.0
2014-Mar-04 10:32S 33°55' E 018°27'0 0.0
2014-Mar-04 09:32S 33°55' E 018°27'0 0.0
2014-Mar-04 08:32S 33°55' E 018°27'0 0.0
2014-Mar-04 07:32S 33°55' E 018°27'0 0.0
2014-Mar-04 06:32S 33°55' E 018°27'0 0.0
2014-Mar-04 05:32S 33°55' E 018°27'0 0.0
2014-Mar-04 04:32S 33°55' E 018°27'0 0.0
2014-Mar-04 03:32S 33°55' E 018°27'0 0.0
2014-Mar-04 02:29S 33°55' E 018°27'0 0.0
2014-Mar-04 01:32S 33°55' E 018°27'0 0.0
2014-Mar-04 00:32S 33°55' E 018°27'0 0.0
2014-Mar-03 23:32S 33°55' E 018°27'0 0.0
2014-Mar-03 22:32S 33°55' E 018°27'0 0.0
2014-Mar-03 21:32S 33°55' E 018°27'0 0.0
2014-Mar-03 20:29S 33°55' E 018°27'0 0.0
2014-Mar-03 19:32S 33°55' E 018°27'0 0.0
2014-Mar-03 18:32S 33°55' E 018°27'0 0.0
2014-Mar-03 17:32S 33°55' E 018°27'0 0.0
2014-Mar-03 16:32S 33°55' E 018°27'0 0.0
2014-Mar-03 15:32S 33°55' E 018°27'0 0.0
2014-Mar-03 14:32S 33°55' E 018°27'0 0.0
2014-Mar-03 13:29S 33°55' E 018°27'0 0.0
2014-Mar-03 12:31S 33°55' E 018°27'0 0.0
2014-Mar-03 11:31S 33°55' E 018°27'0 0.0
2014-Mar-03 10:31S 33°55' E 018°27'0 0.0
2014-Mar-03 09:31S 33°55' E 018°27'0 0.0
2014-Mar-03 08:31S 33°55' E 018°27'0 0.0
2014-Mar-03 07:31S 33°55' E 018°27'0 0.0
2014-Mar-03 06:25S 33°55' E 018°27'0 0.0
2014-Mar-03 05:31S 33°55' E 018°27'0 0.0
2014-Mar-03 04:31S 33°55' E 018°27'0 0.0
2014-Mar-03 03:31S 33°55' E 018°27'0 0.0
2014-Mar-03 02:31S 33°55' E 018°27'0 0.0
2014-Mar-03 01:31S 33°55' E 018°27'0 0.0
2014-Mar-03 00:31S 33°55' E 018°27'0 0.0
2014-Mar-02 23:31S 33°55' E 018°27'0 0.0
2014-Mar-02 22:28S 33°55' E 018°27'0 0.0
2014-Mar-02 21:31S 33°55' E 018°27'0 0.0
2014-Mar-02 20:31S 33°55' E 018°27'0 0.0
2014-Mar-02 19:31S 33°55' E 018°27'0 0.0
2014-Mar-02 18:31S 33°55' E 018°27'0 0.0
2014-Mar-02 17:31S 33°55' E 018°27'0 0.0
2014-Mar-02 16:31S 33°55' E 018°27'0 0.0
2014-Mar-02 15:28S 33°55' E 018°27'0 0.0
2014-Mar-02 14:31S 33°55' E 018°27'0 0.0
2014-Mar-02 13:31S 33°55' E 018°27'0 0.0
2014-Mar-02 12:31S 33°55' E 018°27'0 0.0
2014-Mar-02 11:31S 33°55' E 018°27'0 0.0
2014-Mar-02 10:31S 33°55' E 018°27'0 0.0
2014-Mar-02 09:31S 33°55' E 018°27'0 0.0
2014-Mar-02 08:31S 33°55' E 018°27'4 4.3
2014-Mar-02 07:33S 33°51' E 018°25'1 0.5
2014-Mar-02 06:31S 33°51' E 018°25'0 0.0
2014-Mar-02 05:28S 33°51' E 018°25'0 0.0
2014-Mar-02 04:31S 33°51' E 018°25'0 0.0
2014-Mar-02 03:31S 33°51' E 018°26'0 0.0
2014-Mar-02 02:28S 33°51' E 018°26'0 0.0
2014-Mar-02 01:28S 33°51' E 018°26'0 0.0
2014-Mar-02 00:28S 33°50' E 018°26'0 0.0
2014-Mar-01 23:31S 33°50' E 018°26'0 0.0
2014-Mar-01 22:31S 33°50' E 018°26'0 0.0
2014-Mar-01 21:31S 33°50' E 018°26'0 0.0
2014-Mar-01 20:31S 33°50' E 018°26'0 0.0
2014-Mar-01 19:31S 33°50' E 018°26'0 0.0
2014-Mar-01 18:31S 33°50' E 018°26'0 0.0
2014-Mar-01 17:31S 33°50' E 018°26'0 0.0
2014-Mar-01 16:31S 33°50' E 018°26'0 0.0
2014-Mar-01 15:31S 33°50' E 018°26'0 0.0
2014-Mar-01 14:31S 33°50' E 018°26'0 0.0
2014-Mar-01 13:31S 33°50' E 018°26'0 0.0
2014-Mar-01 12:31S 33°50' E 018°26'0 0.0
2014-Mar-01 11:31S 33°50' E 018°26'0 0.0
2014-Mar-01 10:31S 33°50' E 018°26'0 0.0
2014-Mar-01 09:28S 33°50' E 018°26'0 0.0
2014-Mar-01 08:31S 33°50' E 018°26'0 0.0
2014-Mar-01 07:31S 33°50' E 018°26'0 0.0
2014-Mar-01 06:31S 33°50' E 018°26'0 0.0
2014-Mar-01 05:28S 33°50' E 018°26'0 0.0
2014-Mar-01 04:31S 33°50' E 018°26'0 0.0
2014-Mar-01 03:31S 33°50' E 018°26'0 0.0
2014-Mar-01 02:31S 33°50' E 018°26'0 0.0
2014-Mar-01 01:28S 33°51' E 018°26'0 0.0
2014-Mar-01 00:31S 33°50' E 018°26'0 0.0
2014-Feb-28 23:28S 33°50' E 018°26'0 0.0
2014-Feb-28 22:31S 33°50' E 018°26'0 0.0
2014-Feb-28 21:28S 33°50' E 018°26'0 0.0
2014-Feb-28 20:31S 33°50' E 018°26'0 0.0
2014-Feb-28 19:31S 33°50' E 018°26'0 0.0
2014-Feb-28 18:31S 33°50' E 018°26'0 0.0
2014-Feb-28 17:31S 33°51' E 018°26'0 0.0
2014-Feb-28 16:31S 33°51' E 018°26'0 0.0
2014-Feb-28 15:25S 33°51' E 018°26'0 0.0
2014-Feb-28 14:28S 33°51' E 018°26'0 0.0
2014-Feb-28 13:28S 33°50' E 018°26'0 0.0
2014-Feb-28 12:31S 33°50' E 018°26'0 0.0
2014-Feb-28 11:22S 33°50' E 018°26'0 0.0
2014-Feb-28 10:31S 33°50' E 018°26'0 0.0
2014-Feb-28 09:31S 33°50' E 018°26'0 0.0
2014-Feb-28 08:25S 33°51' E 018°26'0 0.0
2014-Feb-28 07:31S 33°51' E 018°26'0 0.1
2014-Feb-28 06:31S 33°51' E 018°25'0 0.0
2014-Feb-28 05:31S 33°51' E 018°25'0 0.0
2014-Feb-28 04:31S 33°51' E 018°25'0 0.1
2014-Feb-28 03:31S 33°50' E 018°26'0 0.1
2014-Feb-28 02:31S 33°50' E 018°25'0 0.0
2014-Feb-28 01:31S 33°50' E 018°25'0 0.0
2014-Feb-28 00:31S 33°50' E 018°25'0 0.0
2014-Feb-27 23:31S 33°50' E 018°25'0 0.0
2014-Feb-27 22:31S 33°50' E 018°25'0 0.0
2014-Feb-27 21:31S 33°50' E 018°25'0 0.0
2014-Feb-27 19:31S 33°50' E 018°26'0 0.0
2014-Feb-27 18:31S 33°50' E 018°25'0 0.0
2014-Feb-27 17:31S 33°50' E 018°25'0 0.0
2014-Feb-27 16:28S 33°50' E 018°25'0 0.0
2014-Feb-27 15:31S 33°50' E 018°25'0 0.0
2014-Feb-27 14:31S 33°50' E 018°25'0 0.0
2014-Feb-27 13:31S 33°50' E 018°25'0 0.0
2014-Feb-27 12:31S 33°50' E 018°25'0 0.0
2014-Feb-27 11:28S 33°50' E 018°25'0 0.0
2014-Feb-27 10:31S 33°50' E 018°25'0 0.0
2014-Feb-27 09:31S 33°50' E 018°25'0 0.0
2014-Feb-27 08:31S 33°50' E 018°26'0 0.0
2014-Feb-27 07:31S 33°50' E 018°26'0 0.0
2014-Feb-27 06:31S 33°50' E 018°26'0 0.0
2014-Feb-27 05:31S 33°50' E 018°25'0 0.0
2014-Feb-27 04:31S 33°50' E 018°25'0 0.0
2014-Feb-27 03:31S 33°50' E 018°25'0 0.0
2014-Feb-27 02:31S 33°50' E 018°25'0 0.0
2014-Feb-27 01:31S 33°50' E 018°25'0 0.0
2014-Feb-27 00:31S 33°50' E 018°25'0 0.0
2014-Feb-26 23:31S 33°50' E 018°25'0 0.0
2014-Feb-26 22:31S 33°50' E 018°25'0 0.0
2014-Feb-26 21:31S 33°50' E 018°25'0 0.0
2014-Feb-26 20:31S 33°50' E 018°25'0 0.0
2014-Feb-26 19:31S 33°50' E 018°25'0 0.0
2014-Feb-26 18:31S 33°50' E 018°25'0 0.0
2014-Feb-26 17:31S 33°50' E 018°25'0 0.0
2014-Feb-26 16:28S 33°50' E 018°25'0 0.0
2014-Feb-26 15:31S 33°50' E 018°25'0 0.0
2014-Feb-26 14:31S 33°50' E 018°25'0 0.0
2014-Feb-26 13:31S 33°50' E 018°25'0 0.0
2014-Feb-26 12:31S 33°50' E 018°25'0 0.0
2014-Feb-26 11:31S 33°50' E 018°25'0 0.0
2014-Feb-26 10:31S 33°50' E 018°25'1 1.4
2014-Feb-26 09:33S 33°52' E 018°26'3 3.2
2014-Feb-26 08:33S 33°55' E 018°27'0 0.1
2014-Feb-26 07:23S 33°55' E 018°27'0 0.0
2014-Feb-26 06:29S 33°55' E 018°27'0 0.0
2014-Feb-26 05:05S 33°55' E 018°27'0 0.0
2014-Feb-26 04:29S 33°55' E 018°27'0 0.0
2014-Feb-26 03:11S 33°55' E 018°27'0 0.0
2014-Feb-26 01:23S 33°55' E 018°27'0 0.0
2014-Feb-26 00:29S 33°55' E 018°27'0 0.0
2014-Feb-25 23:23S 33°55' E 018°27'0 0.0
2014-Feb-25 22:23S 33°55' E 018°27'0 0.0
2014-Feb-25 21:17S 33°55' E 018°27'0 0.0
2014-Feb-25 20:29S 33°55' E 018°27'0 0.0
2014-Feb-25 19:29S 33°55' E 018°27'0 0.0
2014-Feb-25 18:29S 33°55' E 018°27'0 0.0
2014-Feb-25 17:29S 33°55' E 018°27'0 0.0
2014-Feb-25 16:23S 33°55' E 018°27'0 0.0
2014-Feb-25 15:17S 33°55' E 018°27'0 0.0
2014-Feb-25 14:23S 33°55' E 018°27'0 0.0
2014-Feb-25 13:17S 33°55' E 018°27'0 0.0
2014-Feb-25 12:23S 33°55' E 018°27'0 0.0
2014-Feb-25 11:29S 33°55' E 018°27'0 0.0
2014-Feb-25 10:23S 33°55' E 018°27'0 0.0
2014-Feb-25 09:11S 33°55' E 018°27'0 0.0
2014-Feb-25 08:29S 33°55' E 018°27'0 0.0
2014-Feb-25 07:23S 33°55' E 018°27'0 0.0
2014-Feb-25 06:29S 33°55' E 018°27'0 0.0
2014-Feb-25 05:29S 33°55' E 018°27'0 0.0
2014-Feb-25 04:29S 33°55' E 018°27'0 0.0
2014-Feb-25 03:23S 33°55' E 018°27'0 0.0
2014-Feb-25 02:29S 33°55' E 018°27'0 0.0
2014-Feb-25 01:29S 33°55' E 018°27'0 0.0
2014-Feb-25 00:29S 33°55' E 018°27'0 0.0
2014-Feb-24 23:17S 33°55' E 018°27'0 0.0
2014-Feb-24 22:29S 33°55' E 018°27'0 0.0
2014-Feb-24 21:05S 33°55' E 018°27'0 0.0
2014-Feb-24 20:23S 33°55' E 018°27'0 0.0
2014-Feb-24 19:11S 33°55' E 018°27'0 0.0
2014-Feb-24 18:29S 33°55' E 018°27'0 0.0
2014-Feb-24 17:29S 33°55' E 018°27'0 0.0
2014-Feb-24 16:29S 33°55' E 018°27'0 0.0
2014-Feb-24 15:29S 33°55' E 018°27'  

Dump ship's entire track history

sailing weather and tide predictions

Pacific Sapphire — A8YZ6 — position and weather